sensor_id;sensor_type;location;lat;lon;timestamp;pressure;altitude;pressure_sealevel;temperature;humidity
50364;BME280;36272;59.400;17.982;2023-04-07T00:03:58;102462.34;;;3.82;76.42
50364;BME280;36272;59.400;17.982;2023-04-07T00:08:59;102464.56;;;3.86;76.21
50364;BME280;36272;59.400;17.982;2023-04-07T00:14:01;102452.03;;;3.89;76.25
50364;BME280;36272;59.400;17.982;2023-04-07T00:19:03;102441.88;;;3.84;76.23
50364;BME280;36272;59.400;17.982;2023-04-07T00:24:05;102445.59;;;3.81;76.62
50364;BME280;36272;59.400;17.982;2023-04-07T00:29:06;102446.19;;;3.85;76.55
50364;BME280;36272;59.400;17.982;2023-04-07T00:34:08;102450.06;;;3.81;76.74
50364;BME280;36272;59.400;17.982;2023-04-07T00:39:10;102455.22;;;3.82;76.63
50364;BME280;36272;59.400;17.982;2023-04-07T00:44:12;102457.75;;;3.84;76.85
50364;BME280;36272;59.400;17.982;2023-04-07T00:49:15;102447.00;;;3.85;76.64
50364;BME280;36272;59.400;17.982;2023-04-07T00:54:18;102446.91;;;3.87;76.76
50364;BME280;36272;59.400;17.982;2023-04-07T00:59:20;102451.59;;;3.83;76.82
50364;BME280;36272;59.400;17.982;2023-04-07T01:04:42;102441.44;;;3.89;77.44
50364;BME280;36272;59.400;17.982;2023-04-07T01:09:47;102441.00;;;3.83;76.92
50364;BME280;36272;59.400;17.982;2023-04-07T01:14:58;102427.78;;;3.83;77.09
50364;BME280;36272;59.400;17.982;2023-04-07T01:20:02;102428.47;;;3.85;77.11
50364;BME280;36272;59.400;17.982;2023-04-07T01:30:44;102424.88;;;3.86;77.03
50364;BME280;36272;59.400;17.982;2023-04-07T01:35:48;102422.75;;;3.80;77.16
50364;BME280;36272;59.400;17.982;2023-04-07T01:40:53;102410.91;;;3.75;77.53
50364;BME280;36272;59.400;17.982;2023-04-07T01:45:56;102411.34;;;3.80;77.52
50364;BME280;36272;59.400;17.982;2023-04-07T01:50:58;102411.47;;;3.78;77.64
50364;BME280;36272;59.400;17.982;2023-04-07T01:56:01;102428.47;;;3.76;77.68
50364;BME280;36272;59.400;17.982;2023-04-07T02:01:02;102421.66;;;3.73;77.88
50364;BME280;36272;59.400;17.982;2023-04-07T02:06:06;102414.78;;;3.70;78.01
50364;BME280;36272;59.400;17.982;2023-04-07T02:11:10;102420.94;;;3.71;77.81
50364;BME280;36272;59.400;17.982;2023-04-07T02:16:13;102419.53;;;3.67;78.05
50364;BME280;36272;59.400;17.982;2023-04-07T02:21:17;102428.44;;;3.66;78.29
50364;BME280;36272;59.400;17.982;2023-04-07T02:26:20;102447.34;;;3.61;78.62
50364;BME280;36272;59.400;17.982;2023-04-07T02:31:21;102437.09;;;3.68;78.54
50364;BME280;36272;59.400;17.982;2023-04-07T02:36:23;102436.81;;;3.71;78.69
50364;BME280;36272;59.400;17.982;2023-04-07T02:41:25;102445.16;;;3.76;78.64
50364;BME280;36272;59.400;17.982;2023-04-07T02:46:26;102445.06;;;3.78;78.86
50364;BME280;36272;59.400;17.982;2023-04-07T02:51:28;102443.38;;;3.77;78.55
50364;BME280;36272;59.400;17.982;2023-04-07T02:56:29;102437.09;;;3.78;78.67
50364;BME280;36272;59.400;17.982;2023-04-07T03:01:31;102440.88;;;3.75;78.73
50364;BME280;36272;59.400;17.982;2023-04-07T03:06:35;102446.28;;;3.74;78.72
50364;BME280;36272;59.400;17.982;2023-04-07T03:11:36;102437.22;;;3.76;78.53
50364;BME280;36272;59.400;17.982;2023-04-07T03:16:38;102449.50;;;3.77;78.71
50364;BME280;36272;59.400;17.982;2023-04-07T03:21:40;102440.72;;;3.77;78.77
50364;BME280;36272;59.400;17.982;2023-04-07T03:26:42;102442.66;;;3.75;78.97
50364;BME280;36272;59.400;17.982;2023-04-07T03:31:43;102449.91;;;3.72;79.10
50364;BME280;36272;59.400;17.982;2023-04-07T03:36:45;102452.81;;;3.69;79.14
50364;BME280;36272;59.400;17.982;2023-04-07T03:41:47;102458.00;;;3.71;79.17
50364;BME280;36272;59.400;17.982;2023-04-07T03:46:48;102446.44;;;3.72;79.25
50364;BME280;36272;59.400;17.982;2023-04-07T03:51:56;102442.22;;;3.69;79.36
50364;BME280;36272;59.400;17.982;2023-04-07T03:56:58;102455.34;;;3.71;79.35
50364;BME280;36272;59.400;17.982;2023-04-07T04:01:59;102463.28;;;3.71;79.29
50364;BME280;36272;59.400;17.982;2023-04-07T04:07:01;102457.72;;;3.74;79.58
50364;BME280;36272;59.400;17.982;2023-04-07T04:12:03;102458.81;;;3.71;79.51
50364;BME280;36272;59.400;17.982;2023-04-07T04:17:04;102460.66;;;3.71;79.82
50364;BME280;36272;59.400;17.982;2023-04-07T04:22:06;102465.66;;;3.74;79.74
50364;BME280;36272;59.400;17.982;2023-04-07T04:27:08;102471.94;;;3.73;79.94
50364;BME280;36272;59.400;17.982;2023-04-07T04:32:15;102458.69;;;3.73;80.22
50364;BME280;36272;59.400;17.982;2023-04-07T04:37:18;102482.94;;;3.78;80.02
50364;BME280;36272;59.400;17.982;2023-04-07T04:42:19;102487.00;;;3.82;79.86
50364;BME280;36272;59.400;17.982;2023-04-07T04:47:21;102498.00;;;3.78;79.94
50364;BME280;36272;59.400;17.982;2023-04-07T04:52:23;102497.84;;;3.79;79.90
50364;BME280;36272;59.400;17.982;2023-04-07T04:57:25;102511.94;;;3.80;80.02
50364;BME280;36272;59.400;17.982;2023-04-07T05:02:27;102507.91;;;3.85;80.06
50364;BME280;36272;59.400;17.982;2023-04-07T05:07:28;102515.16;;;3.83;80.13
50364;BME280;36272;59.400;17.982;2023-04-07T05:12:30;102520.31;;;3.85;80.26
50364;BME280;36272;59.400;17.982;2023-04-07T05:17:32;102509.91;;;3.93;80.04
50364;BME280;36272;59.400;17.982;2023-04-07T05:22:33;102519.38;;;3.96;79.94
50364;BME280;36272;59.400;17.982;2023-04-07T05:27:35;102515.31;;;3.92;79.84
50364;BME280;36272;59.400;17.982;2023-04-07T05:32:37;102520.19;;;3.86;80.00
50364;BME280;36272;59.400;17.982;2023-04-07T05:37:38;102524.22;;;3.91;79.98
50364;BME280;36272;59.400;17.982;2023-04-07T05:42:46;102529.00;;;3.97;80.25
50364;BME280;36272;59.400;17.982;2023-04-07T05:47:47;102540.44;;;3.97;80.15
50364;BME280;36272;59.400;17.982;2023-04-07T05:52:50;102546.00;;;3.94;79.78
50364;BME280;36272;59.400;17.982;2023-04-07T05:57:52;102546.84;;;3.95;79.92
50364;BME280;36272;59.400;17.982;2023-04-07T06:02:55;102553.09;;;3.94;80.05
50364;BME280;36272;59.400;17.982;2023-04-07T06:07:56;102549.91;;;4.00;80.06
50364;BME280;36272;59.400;17.982;2023-04-07T06:12:58;102539.78;;;4.05;79.67
50364;BME280;36272;59.400;17.982;2023-04-07T06:18:00;102547.56;;;4.07;79.86
50364;BME280;36272;59.400;17.982;2023-04-07T06:23:06;102536.31;;;4.14;79.63
50364;BME280;36272;59.400;17.982;2023-04-07T06:28:08;102547.31;;;4.20;79.37
50364;BME280;36272;59.400;17.982;2023-04-07T06:33:10;102553.19;;;4.23;79.47
50364;BME280;36272;59.400;17.982;2023-04-07T06:38:11;102561.97;;;4.24;79.63
50364;BME280;36272;59.400;17.982;2023-04-07T06:43:13;102559.06;;;4.27;79.58
50364;BME280;36272;59.400;17.982;2023-04-07T06:48:15;102571.06;;;4.31;79.59
50364;BME280;36272;59.400;17.982;2023-04-07T06:53:17;102565.50;;;4.34;79.57
50364;BME280;36272;59.400;17.982;2023-04-07T06:58:19;102560.78;;;4.38;79.48
50364;BME280;36272;59.400;17.982;2023-04-07T07:03:20;102570.97;;;4.42;79.49
50364;BME280;36272;59.400;17.982;2023-04-07T07:08:23;102564.16;;;4.50;79.44
50364;BME280;36272;59.400;17.982;2023-04-07T07:13:25;102562.47;;;4.58;79.31
50364;BME280;36272;59.400;17.982;2023-04-07T07:18:27;102572.53;;;4.65;79.14
50364;BME280;36272;59.400;17.982;2023-04-07T07:23:29;102586.06;;;4.71;78.91
50364;BME280;36272;59.400;17.982;2023-04-07T07:28:30;102584.28;;;4.72;79.09
50364;BME280;36272;59.400;17.982;2023-04-07T07:33:32;102586.94;;;4.82;79.00
50364;BME280;36272;59.400;17.982;2023-04-07T07:38:33;102585.25;;;4.81;78.71
50364;BME280;36272;59.400;17.982;2023-04-07T07:43:35;102595.75;;;4.82;78.92
50364;BME280;36272;59.400;17.982;2023-04-07T07:48:37;102595.75;;;4.92;78.63
50364;BME280;36272;59.400;17.982;2023-04-07T07:53:39;102597.97;;;4.97;78.22
50364;BME280;36272;59.400;17.982;2023-04-07T07:58:46;102594.75;;;5.03;78.66
50364;BME280;36272;59.400;17.982;2023-04-07T08:03:47;102612.78;;;5.09;78.30
50364;BME280;36272;59.400;17.982;2023-04-07T08:08:49;102608.03;;;5.13;77.90
50364;BME280;36272;59.400;17.982;2023-04-07T08:13:51;102626.47;;;5.14;77.88
50364;BME280;36272;59.400;17.982;2023-04-07T08:18:54;102628.00;;;5.17;77.70
50364;BME280;36272;59.400;17.982;2023-04-07T08:23:56;102623.81;;;5.24;77.75
50364;BME280;36272;59.400;17.982;2023-04-07T08:28:57;102631.75;;;5.34;77.42
50364;BME280;36272;59.400;17.982;2023-04-07T08:33:59;102628.69;;;5.39;77.09
50364;BME280;36272;59.400;17.982;2023-04-07T08:39:01;102633.72;;;5.42;77.16
50364;BME280;36272;59.400;17.982;2023-04-07T08:44:06;102619.19;;;5.46;77.21
50364;BME280;36272;59.400;17.982;2023-04-07T08:49:09;102618.75;;;5.50;76.90
50364;BME280;36272;59.400;17.982;2023-04-07T08:54:16;102612.63;;;5.50;76.83
50364;BME280;36272;59.400;17.982;2023-04-07T08:59:20;102614.56;;;5.58;76.50
50364;BME280;36272;59.400;17.982;2023-04-07T09:04:27;102630.06;;;5.62;77.01
50364;BME280;36272;59.400;17.982;2023-04-07T09:09:28;102623.06;;;5.71;76.39
50364;BME280;36272;59.400;17.982;2023-04-07T09:14:30;102636.88;;;5.75;76.39
50364;BME280;36272;59.400;17.982;2023-04-07T09:19:32;102628.63;;;5.78;75.98
50364;BME280;36272;59.400;17.982;2023-04-07T09:24:34;102642.31;;;5.83;75.96
50364;BME280;36272;59.400;17.982;2023-04-07T09:29:36;102638.69;;;5.84;75.79
50364;BME280;36272;59.400;17.982;2023-04-07T09:34:39;102630.56;;;5.86;76.14
50364;BME280;36272;59.400;17.982;2023-04-07T09:39:49;102632.22;;;5.96;76.51
50364;BME280;36272;59.400;17.982;2023-04-07T09:44:51;102656.84;;;6.08;75.70
50364;BME280;36272;59.400;17.982;2023-04-07T09:49:58;102642.84;;;6.06;75.96
50364;BME280;36272;59.400;17.982;2023-04-07T09:55:06;102649.56;;;6.10;75.74
50364;BME280;36272;59.400;17.982;2023-04-07T10:00:08;102653.03;;;6.11;75.62
50364;BME280;36272;59.400;17.982;2023-04-07T10:05:11;102661.81;;;6.21;75.36
50364;BME280;36272;59.400;17.982;2023-04-07T10:10:13;102667.13;;;6.21;75.12
50364;BME280;36272;59.400;17.982;2023-04-07T10:15:16;102664.47;;;6.21;74.97
50364;BME280;36272;59.400;17.982;2023-04-07T10:20:18;102662.06;;;6.28;75.38
50364;BME280;36272;59.400;17.982;2023-04-07T10:25:22;102657.09;;;6.43;74.93
50364;BME280;36272;59.400;17.982;2023-04-07T10:30:28;102650.25;;;6.40;74.30
50364;BME280;36272;59.400;17.982;2023-04-07T10:36:06;102653.31;;;6.46;74.76
50364;BME280;36272;59.400;17.982;2023-04-07T10:41:31;102649.13;;;6.43;74.61
50364;BME280;36272;59.400;17.982;2023-04-07T10:57:16;102666.47;;;6.47;74.55
50364;BME280;36272;59.400;17.982;2023-04-07T11:07:43;102665.34;;;6.50;74.28
50364;BME280;36272;59.400;17.982;2023-04-07T11:13:02;102669.81;;;6.49;74.10
50364;BME280;36272;59.400;17.982;2023-04-07T11:18:18;102658.88;;;6.52;74.35
50364;BME280;36272;59.400;17.982;2023-04-07T11:23:21;102667.16;;;6.77;73.75
50364;BME280;36272;59.400;17.982;2023-04-07T11:28:24;102678.47;;;6.51;74.00
50364;BME280;36272;59.400;17.982;2023-04-07T11:33:27;102674.53;;;6.55;74.14
50364;BME280;36272;59.400;17.982;2023-04-07T11:38:35;102661.34;;;6.64;73.90
50364;BME280;36272;59.400;17.982;2023-04-07T11:43:36;102682.03;;;6.70;73.64
50364;BME280;36272;59.400;17.982;2023-04-07T11:48:42;102668.28;;;6.75;73.30
50364;BME280;36272;59.400;17.982;2023-04-07T11:53:44;102673.84;;;6.81;73.90
50364;BME280;36272;59.400;17.982;2023-04-07T11:58:51;102666.69;;;6.82;73.24
50364;BME280;36272;59.400;17.982;2023-04-07T12:04:03;102673.94;;;6.90;73.31
50364;BME280;36272;59.400;17.982;2023-04-07T12:09:05;102682.59;;;6.92;72.69
50364;BME280;36272;59.400;17.982;2023-04-07T12:14:06;102691.16;;;6.85;72.63
50364;BME280;36272;59.400;17.982;2023-04-07T12:19:09;102695.13;;;6.81;72.87
50364;BME280;36272;59.400;17.982;2023-04-07T12:24:11;102684.72;;;6.88;72.55
50364;BME280;36272;59.400;17.982;2023-04-07T12:29:18;102668.47;;;6.91;72.50
50364;BME280;36272;59.400;17.982;2023-04-07T12:34:20;102682.28;;;6.95;72.22
50364;BME280;36272;59.400;17.982;2023-04-07T12:39:22;102677.97;;;6.94;72.33
50364;BME280;36272;59.400;17.982;2023-04-07T12:44:24;102672.50;;;6.95;71.90
50364;BME280;36272;59.400;17.982;2023-04-07T12:49:25;102676.78;;;7.06;72.29
50364;BME280;36272;59.400;17.982;2023-04-07T12:54:27;102676.69;;;7.16;72.09
50364;BME280;36272;59.400;17.982;2023-04-07T12:59:29;102677.94;;;7.22;72.08
50364;BME280;36272;59.400;17.982;2023-04-07T13:04:31;102674.03;;;7.34;71.45
50364;BME280;36272;59.400;17.982;2023-04-07T13:09:33;102668.00;;;7.32;71.52
50364;BME280;36272;59.400;17.982;2023-04-07T13:14:34;102673.66;;;7.47;71.30
50364;BME280;36272;59.400;17.982;2023-04-07T13:19:36;102663.75;;;7.57;71.41
50364;BME280;36272;59.400;17.982;2023-04-07T13:24:38;102654.16;;;7.65;71.49
50364;BME280;36272;59.400;17.982;2023-04-07T13:29:40;102655.00;;;7.65;71.22
50364;BME280;36272;59.400;17.982;2023-04-07T13:34:42;102658.03;;;7.70;70.99
50364;BME280;36272;59.400;17.982;2023-04-07T13:39:44;102665.22;;;7.78;70.55
50364;BME280;36272;59.400;17.982;2023-04-07T13:44:46;102663.09;;;7.82;70.18
50364;BME280;36272;59.400;17.982;2023-04-07T13:49:53;102643.75;;;7.80;70.18
50364;BME280;36272;59.400;17.982;2023-04-07T13:54:55;102661.78;;;7.86;70.35
50364;BME280;36272;59.400;17.982;2023-04-07T13:59:58;102656.31;;;7.87;69.74
50364;BME280;36272;59.400;17.982;2023-04-07T14:04:59;102661.41;;;7.81;69.74
50364;BME280;36272;59.400;17.982;2023-04-07T14:10:01;102650.31;;;7.85;69.79
50364;BME280;36272;59.400;17.982;2023-04-07T14:15:03;102651.97;;;7.86;69.80
50364;BME280;36272;59.400;17.982;2023-04-07T14:20:06;102657.13;;;7.88;69.44
50364;BME280;36272;59.400;17.982;2023-04-07T14:25:08;102663.09;;;7.82;68.96
50364;BME280;36272;59.400;17.982;2023-04-07T14:30:11;102653.91;;;7.76;69.45
50364;BME280;36272;59.400;17.982;2023-04-07T14:35:12;102657.69;;;7.73;69.30
50364;BME280;36272;59.400;17.982;2023-04-07T14:40:14;102647.72;;;7.76;69.10
50364;BME280;36272;59.400;17.982;2023-04-07T14:45:16;102653.72;;;7.78;69.21
50364;BME280;36272;59.400;17.982;2023-04-07T14:50:19;102647.09;;;7.82;69.28
50364;BME280;36272;59.400;17.982;2023-04-07T14:55:21;102649.44;;;7.85;69.37
50364;BME280;36272;59.400;17.982;2023-04-07T15:00:23;102658.75;;;7.81;68.79
50364;BME280;36272;59.400;17.982;2023-04-07T15:05:28;102640.56;;;7.76;68.82
50364;BME280;36272;59.400;17.982;2023-04-07T15:10:30;102657.69;;;7.73;68.96
50364;BME280;36272;59.400;17.982;2023-04-07T15:15:33;102649.50;;;7.67;68.82
50364;BME280;36272;59.400;17.982;2023-04-07T15:20:35;102649.97;;;7.62;68.79
50364;BME280;36272;59.400;17.982;2023-04-07T15:25:36;102654.25;;;7.55;69.11
50364;BME280;36272;59.400;17.982;2023-04-07T15:30:38;102653.69;;;7.51;69.25
50364;BME280;36272;59.400;17.982;2023-04-07T15:35:41;102638.19;;;7.47;69.70
50364;BME280;36272;59.400;17.982;2023-04-07T15:40:48;102637.13;;;7.39;69.61
50364;BME280;36272;59.400;17.982;2023-04-07T15:45:50;102647.94;;;7.38;69.67
50364;BME280;36272;59.400;17.982;2023-04-07T15:50:52;102649.06;;;7.35;69.27
50364;BME280;36272;59.400;17.982;2023-04-07T15:55:54;102658.34;;;7.31;69.13
50364;BME280;36272;59.400;17.982;2023-04-07T16:00:56;102659.69;;;7.27;69.40
50364;BME280;36272;59.400;17.982;2023-04-07T16:05:58;102662.66;;;7.24;69.26
50364;BME280;36272;59.400;17.982;2023-04-07T16:11:04;102648.78;;;7.20;69.29
50364;BME280;36272;59.400;17.982;2023-04-07T16:16:06;102674.19;;;7.14;69.34
50364;BME280;36272;59.400;17.982;2023-04-07T16:21:08;102664.66;;;7.12;69.80
50364;BME280;36272;59.400;17.982;2023-04-07T16:26:09;102670.97;;;7.11;69.31
50364;BME280;36272;59.400;17.982;2023-04-07T16:31:11;102683.75;;;7.07;69.30
50364;BME280;36272;59.400;17.982;2023-04-07T16:36:12;102680.88;;;7.01;69.90
50364;BME280;36272;59.400;17.982;2023-04-07T16:41:14;102681.31;;;6.96;69.64
50364;BME280;36272;59.400;17.982;2023-04-07T16:46:16;102682.47;;;6.93;69.64
50364;BME280;36272;59.400;17.982;2023-04-07T16:51:18;102679.94;;;6.92;69.74
50364;BME280;36272;59.400;17.982;2023-04-07T16:56:21;102694.81;;;6.84;70.14
50364;BME280;36272;59.400;17.982;2023-04-07T17:01:27;102696.84;;;6.73;70.01
50364;BME280;36272;59.400;17.982;2023-04-07T17:06:28;102706.97;;;6.69;69.85
50364;BME280;36272;59.400;17.982;2023-04-07T17:11:30;102708.53;;;6.62;69.75
50364;BME280;36272;59.400;17.982;2023-04-07T17:16:32;102704.78;;;6.54;69.98
50364;BME280;36272;59.400;17.982;2023-04-07T17:21:33;102719.22;;;6.52;70.02
50364;BME280;36272;59.400;17.982;2023-04-07T17:26:36;102725.81;;;6.48;69.99
50364;BME280;36272;59.400;17.982;2023-04-07T17:31:37;102721.06;;;6.42;70.05
50364;BME280;36272;59.400;17.982;2023-04-07T17:36:39;102732.13;;;6.37;70.00
50364;BME280;36272;59.400;17.982;2023-04-07T17:41:41;102735.66;;;6.28;70.17
50364;BME280;36272;59.400;17.982;2023-04-07T17:46:43;102739.72;;;6.22;70.41
50364;BME280;36272;59.400;17.982;2023-04-07T17:51:45;102742.66;;;6.19;70.41
50364;BME280;36272;59.400;17.982;2023-04-07T17:56:46;102746.44;;;6.16;70.29
50364;BME280;36272;59.400;17.982;2023-04-07T18:01:48;102754.69;;;6.13;70.50
50364;BME280;36272;59.400;17.982;2023-04-07T18:06:49;102752.31;;;6.10;70.29
50364;BME280;36272;59.400;17.982;2023-04-07T18:11:51;102761.56;;;6.06;70.10
50364;BME280;36272;59.400;17.982;2023-04-07T18:16:54;102751.63;;;5.98;70.64
50364;BME280;36272;59.400;17.982;2023-04-07T18:21:55;102759.88;;;5.95;70.75
50364;BME280;36272;59.400;17.982;2023-04-07T18:26:57;102769.81;;;5.93;70.44
50364;BME280;36272;59.400;17.982;2023-04-07T18:31:59;102769.94;;;5.91;70.42
50364;BME280;36272;59.400;17.982;2023-04-07T18:37:01;102773.16;;;5.85;70.33
50364;BME280;36272;59.400;17.982;2023-04-07T18:42:03;102766.19;;;5.84;70.33
50364;BME280;36272;59.400;17.982;2023-04-07T18:47:04;102777.34;;;5.78;70.46
50364;BME280;36272;59.400;17.982;2023-04-07T18:52:06;102773.47;;;5.72;70.39
50364;BME280;36272;59.400;17.982;2023-04-07T18:57:08;102780.03;;;5.68;70.47
50364;BME280;36272;59.400;17.982;2023-04-07T19:02:09;102785.72;;;5.63;70.49
50364;BME280;36272;59.400;17.982;2023-04-07T19:07:11;102780.84;;;5.59;70.21
50364;BME280;36272;59.400;17.982;2023-04-07T19:12:13;102786.56;;;5.54;70.30
50364;BME280;36272;59.400;17.982;2023-04-07T19:17:14;102791.84;;;5.54;69.87
50364;BME280;36272;59.400;17.982;2023-04-07T19:22:17;102792.84;;;5.53;70.30
50364;BME280;36272;59.400;17.982;2023-04-07T19:27:18;102798.44;;;5.50;69.82
50364;BME280;36272;59.400;17.982;2023-04-07T19:32:20;102793.53;;;5.45;69.66
50364;BME280;36272;59.400;17.982;2023-04-07T19:37:21;102800.25;;;5.40;69.37
50364;BME280;36272;59.400;17.982;2023-04-07T19:42:23;102797.16;;;5.34;69.27
50364;BME280;36272;59.400;17.982;2023-04-07T19:47:27;102796.44;;;5.32;69.25
50364;BME280;36272;59.400;17.982;2023-04-07T19:52:29;102791.84;;;5.34;69.46
50364;BME280;36272;59.400;17.982;2023-04-07T19:57:32;102809.72;;;5.32;69.35
50364;BME280;36272;59.400;17.982;2023-04-07T20:02:35;102797.69;;;5.28;69.32
50364;BME280;36272;59.400;17.982;2023-04-07T20:07:36;102814.59;;;5.27;69.61
50364;BME280;36272;59.400;17.982;2023-04-07T20:12:38;102815.56;;;5.26;69.61
50364;BME280;36272;59.400;17.982;2023-04-07T20:17:40;102824.50;;;5.25;69.49
50364;BME280;36272;59.400;17.982;2023-04-07T20:22:41;102821.84;;;5.25;69.19
50364;BME280;36272;59.400;17.982;2023-04-07T20:27:43;102826.44;;;5.23;69.29
50364;BME280;36272;59.400;17.982;2023-04-07T20:32:50;102820.44;;;5.21;69.00
50364;BME280;36272;59.400;17.982;2023-04-07T20:37:51;102834.41;;;5.23;68.95
50364;BME280;36272;59.400;17.982;2023-04-07T20:42:53;102831.03;;;5.21;68.86
50364;BME280;36272;59.400;17.982;2023-04-07T20:47:55;102817.59;;;5.13;68.77
50364;BME280;36272;59.400;17.982;2023-04-07T20:52:57;102815.91;;;5.12;69.17
50364;BME280;36272;59.400;17.982;2023-04-07T20:57:58;102812.72;;;5.08;68.82
50364;BME280;36272;59.400;17.982;2023-04-07T21:03:00;102824.84;;;5.11;68.80
50364;BME280;36272;59.400;17.982;2023-04-07T21:08:02;102818.84;;;5.09;68.91
50364;BME280;36272;59.400;17.982;2023-04-07T21:13:04;102819.69;;;5.09;68.88
50364;BME280;36272;59.400;17.982;2023-04-07T21:18:06;102829.47;;;5.09;68.55
50364;BME280;36272;59.400;17.982;2023-04-07T21:23:07;102823.59;;;5.05;68.49
50364;BME280;36272;59.400;17.982;2023-04-07T21:28:09;102836.28;;;5.01;68.57
50364;BME280;36272;59.400;17.982;2023-04-07T21:33:11;102839.66;;;5.03;68.59
50364;BME280;36272;59.400;17.982;2023-04-07T21:38:14;102830.84;;;5.03;68.61
50364;BME280;36272;59.400;17.982;2023-04-07T21:43:16;102833.50;;;5.03;68.83
50364;BME280;36272;59.400;17.982;2023-04-07T21:48:18;102836.59;;;5.08;68.68
50364;BME280;36272;59.400;17.982;2023-04-07T21:53:23;102844.28;;;5.11;68.54
50364;BME280;36272;59.400;17.982;2023-04-07T21:58:25;102843.72;;;5.08;68.56
50364;BME280;36272;59.400;17.982;2023-04-07T22:03:27;102844.69;;;5.06;68.53
50364;BME280;36272;59.400;17.982;2023-04-07T22:08:29;102843.72;;;5.08;68.27
50364;BME280;36272;59.400;17.982;2023-04-07T22:13:31;102843.00;;;5.05;68.19
50364;BME280;36272;59.400;17.982;2023-04-07T22:18:33;102845.06;;;5.02;68.55
50364;BME280;36272;59.400;17.982;2023-04-07T22:23:34;102844.25;;;5.01;68.87
50364;BME280;36272;59.400;17.982;2023-04-07T22:28:36;102835.59;;;4.99;68.88
50364;BME280;36272;59.400;17.982;2023-04-07T22:33:38;102839.91;;;5.00;68.86
50364;BME280;36272;59.400;17.982;2023-04-07T22:38:40;102840.88;;;4.99;68.91
50364;BME280;36272;59.400;17.982;2023-04-07T22:43:41;102847.88;;;5.00;68.71
50364;BME280;36272;59.400;17.982;2023-04-07T22:48:43;102846.19;;;4.99;68.79
50364;BME280;36272;59.400;17.982;2023-04-07T22:53:45;102845.34;;;4.99;68.77
50364;BME280;36272;59.400;17.982;2023-04-07T22:58:46;102840.75;;;5.01;68.83
50364;BME280;36272;59.400;17.982;2023-04-07T23:03:48;102837.25;;;5.00;68.56
50364;BME280;36272;59.400;17.982;2023-04-07T23:08:50;102845.59;;;4.96;68.76
50364;BME280;36272;59.400;17.982;2023-04-07T23:13:51;102838.50;;;4.96;69.03
50364;BME280;36272;59.400;17.982;2023-04-07T23:18:53;102848.41;;;4.94;69.04
50364;BME280;36272;59.400;17.982;2023-04-07T23:23:54;102840.44;;;4.94;68.75
50364;BME280;36272;59.400;17.982;2023-04-07T23:28:56;102836.94;;;4.94;69.25
50364;BME280;36272;59.400;17.982;2023-04-07T23:33:58;102839.31;;;4.97;68.85
50364;BME280;36272;59.400;17.982;2023-04-07T23:39:00;102842.84;;;4.97;68.75
50364;BME280;36272;59.400;17.982;2023-04-07T23:44:02;102850.91;;;4.96;68.84
50364;BME280;36272;59.400;17.982;2023-04-07T23:49:04;102841.88;;;4.98;68.81
50364;BME280;36272;59.400;17.982;2023-04-07T23:54:06;102847.16;;;4.98;68.64
50364;BME280;36272;59.400;17.982;2023-04-07T23:59:07;102840.88;;;4.99;68.67
